Time;durP1;ratioP1;P1;durP2;ratioP2;P2;SDS_P1;SDS_P2;PMS_P1;PMS_P2;Temp;Humidity;BMP_temperature;BMP_pressure;BME280_temperature;BME280_humidity;BME280_pressure;Samples;Min_cycle;Max_cycle;Signal;HPM_P1;HPM_P2
2022/07/07 00:02:13;;;;;;;3.30;2.65;;;15.70;99.90;;;;;;5224937;28;20218;-61
2022/07/07 00:04:47;;;;;;;2.95;2.50;;;15.70;99.90;;;;;;5200514;28;20044;-61
2022/07/07 00:07:23;;;;;;;2.57;2.33;;;15.70;99.90;;;;;;5239216;28;20020;-61
2022/07/07 00:09:54;;;;;;;3.20;2.38;;;15.80;99.90;;;;;;5242091;28;20265;-62
2022/07/07 00:12:33;;;;;;;2.40;2.20;;;15.80;99.90;;;;;;5217639;28;20043;-61
2022/07/07 00:15:06;;;;;;;2.15;2.05;;;15.70;99.90;;;;;;5219386;28;20023;-62
2022/07/07 00:17:37;;;;;;;3.20;2.90;;;15.60;99.90;;;;;;5218767;28;20318;-62
2022/07/07 00:20:15;;;;;;;2.17;1.98;;;15.60;99.90;;;;;;5218794;28;20176;-61
2022/07/07 00:22:47;;;;;;;2.55;2.35;;;15.50;99.90;;;;;;5225930;28;20441;-61
2022/07/07 00:25:18;;;;;;;2.65;2.13;;;15.40;99.90;;;;;;5239738;28;20027;-61
2022/07/07 00:27:49;;;;;;;2.47;2.13;;;15.30;99.90;;;;;;5223861;28;20040;-61
2022/07/07 00:30:25;;;;;;;2.70;2.38;;;15.20;99.90;;;;;;5240081;28;20325;-62
2022/07/07 00:32:58;;;;;;;2.30;2.10;;;15.10;99.90;;;;;;5218569;28;20373;-61
2022/07/07 00:35:32;;;;;;;5.18;2.47;;;15.10;99.90;;;;;;5240993;28;20017;-61
2022/07/07 00:38:06;;;;;;;2.67;2.47;;;15.10;99.90;;;;;;5238353;28;20028;-61
2022/07/07 00:40:42;;;;;;;2.75;2.55;;;15.00;99.90;;;;;;5238691;28;20804;-62
2022/07/07 00:43:16;;;;;;;2.53;2.20;;;14.90;99.90;;;;;;5239119;28;20025;-62
2022/07/07 00:45:48;;;;;;;2.30;2.10;;;14.80;99.90;;;;;;5230454;28;20302;-61
2022/07/07 00:48:24;;;;;;;2.30;2.10;;;14.70;99.90;;;;;;5220953;28;20031;-60
2022/07/07 00:51:00;;;;;;;3.60;2.72;;;14.70;99.90;;;;;;5206430;28;20032;-63
2022/07/07 00:53:35;;;;;;;3.05;2.67;;;14.60;99.90;;;;;;5221138;28;20039;-63
2022/07/07 00:56:09;;;;;;;3.03;2.53;;;14.60;99.90;;;;;;5218669;28;20024;-62
2022/07/07 00:58:45;;;;;;;2.60;2.40;;;14.50;99.90;;;;;;5244347;28;20050;-61
2022/07/07 01:01:19;;;;;;;6.43;3.47;;;14.50;99.90;;;;;;5222355;28;20021;-61
2022/07/07 01:03:55;;;;;;;3.57;3.07;;;14.40;99.90;;;;;;5247163;28;20031;-61
2022/07/07 01:06:28;;;;;;;3.05;2.30;;;14.40;99.90;;;;;;5202370;28;20071;-62
2022/07/07 01:09:00;;;;;;;2.67;2.47;;;14.30;99.90;;;;;;5222809;28;20037;-61
2022/07/07 01:12:06;;;;;;;2.97;2.67;;;14.30;99.90;;;;;;5220269;28;20036;-62
2022/07/07 01:14:44;;;;;;;3.25;2.92;;;14.30;99.90;;;;;;5158287;28;20040;-61
2022/07/07 01:17:16;;;;;;;3.00;2.70;;;14.40;99.90;;;;;;5176751;28;20385;-60
2022/07/07 01:19:47;;;;;;;2.55;2.35;;;14.30;99.90;;;;;;5180801;28;20044;-61
2022/07/07 01:22:25;;;;;;;2.97;2.78;;;14.30;99.90;;;;;;5165712;28;20382;-60
2022/07/07 01:25:00;;;;;;;2.47;2.28;;;14.30;99.90;;;;;;5141115;28;20041;-61
2022/07/07 01:27:34;;;;;;;2.67;2.47;;;14.30;99.90;;;;;;5143045;28;20251;-61
2022/07/07 01:30:08;;;;;;;6.18;2.83;;;14.20;99.90;;;;;;5160908;28;20054;-62
2022/07/07 01:32:40;;;;;;;2.50;2.30;;;14.20;99.90;;;;;;5161960;28;20037;-62
2022/07/07 01:35:12;;;;;;;2.60;2.25;;;14.20;99.90;;;;;;5161986;28;20299;-62
2022/07/07 01:37:43;;;;;;;2.75;2.50;;;14.20;99.90;;;;;;5161921;28;20110;-61
2022/07/07 01:40:17;;;;;;;4.43;2.70;;;14.20;99.90;;;;;;5145936;28;20313;-61
2022/07/07 01:42:56;;;;;;;3.00;2.30;;;14.20;99.90;;;;;;5163373;28;20055;-62
2022/07/07 01:45:32;;;;;;;3.17;2.72;;;14.20;99.90;;;;;;5160419;28;20144;-61
2022/07/07 01:48:08;;;;;;;2.50;2.30;;;14.20;99.90;;;;;;5160231;28;20118;-62
2022/07/07 01:50:42;;;;;;;2.38;2.17;;;14.20;99.90;;;;;;5217451;28;20029;-61
2022/07/07 01:53:15;;;;;;;3.55;3.05;;;14.20;99.90;;;;;;5243449;28;20498;-61
2022/07/07 01:55:49;;;;;;;3.88;2.40;;;14.20;99.90;;;;;;5224686;28;20025;-62
2022/07/07 01:58:20;;;;;;;5.00;2.83;;;14.30;99.90;;;;;;5247240;28;20302;-62
2022/07/07 02:00:51;;;;;;;3.05;2.30;;;14.30;99.90;;;;;;5247809;28;20257;-62
2022/07/07 02:03:26;;;;;;;2.40;2.20;;;14.40;99.90;;;;;;5249767;28;20204;-61
2022/07/07 02:05:59;;;;;;;2.53;2.33;;;14.40;99.90;;;;;;5203651;28;20037;-62
2022/07/07 02:08:33;;;;;;;3.35;3.00;;;14.40;99.90;;;;;;5242158;28;20016;-61
2022/07/07 02:11:13;;;;;;;2.70;2.50;;;14.40;99.90;;;;;;5242315;28;20248;-61
2022/07/07 02:13:50;;;;;;;3.22;2.92;;;14.50;99.90;;;;;;5245234;28;20050;-61
2022/07/07 02:16:23;;;;;;;2.50;2.30;;;14.60;99.90;;;;;;5252453;28;20315;-62
2022/07/07 02:18:59;;;;;;;4.73;2.87;;;14.70;99.90;;;;;;5264495;28;20034;-62
2022/07/07 02:21:34;;;;;;;2.95;2.67;;;14.80;99.90;;;;;;5254560;28;20275;-60
2022/07/07 02:24:05;;;;;;;2.88;2.47;;;14.80;99.90;;;;;;5244056;28;20014;-63
2022/07/07 02:26:39;;;;;;;2.40;2.20;;;14.90;99.90;;;;;;5250316;28;20020;-62
2022/07/07 02:29:10;;;;;;;3.10;2.80;;;14.90;99.90;;;;;;5264017;28;20024;-61
2022/07/07 02:31:42;;;;;;;3.13;2.22;;;15.00;99.90;;;;;;5261650;28;20024;-61
2022/07/07 02:34:13;;;;;;;3.10;2.67;;;15.10;99.90;;;;;;5262462;28;20313;-62
2022/07/07 02:36:44;;;;;;;2.90;2.65;;;15.10;99.90;;;;;;5179356;28;20191;-62
2022/07/07 02:39:15;;;;;;;2.60;2.40;;;15.20;99.90;;;;;;5241677;28;20213;-61
2022/07/07 02:41:46;;;;;;;2.67;2.47;;;15.20;99.90;;;;;;5240037;28;20054;-61
2022/07/07 02:44:18;;;;;;;2.60;2.15;;;15.20;99.90;;;;;;5239512;28;20032;-61
2022/07/07 02:46:51;;;;;;;3.13;2.88;;;15.20;99.90;;;;;;5222271;28;20037;-61
2022/07/07 02:49:28;;;;;;;3.22;2.35;;;15.20;99.90;;;;;;5240723;28;20040;-61
2022/07/07 02:51:59;;;;;;;2.55;2.35;;;15.20;99.90;;;;;;5240732;28;20119;-61
2022/07/07 02:54:33;;;;;;;2.72;2.50;;;15.20;99.90;;;;;;5237210;28;20020;-62
2022/07/07 02:57:07;;;;;;;2.67;2.13;;;15.20;99.90;;;;;;5240972;28;20180;-61
2022/07/07 02:59:40;;;;;;;2.88;2.20;;;15.20;99.90;;;;;;5240092;28;20447;-62
2022/07/07 03:02:14;;;;;;;2.60;2.30;;;15.20;99.90;;;;;;5239390;28;20029;-61
2022/07/07 03:04:50;;;;;;;2.42;2.17;;;15.20;99.90;;;;;;5210713;28;20037;-61
2022/07/07 03:07:24;;;;;;;2.60;2.40;;;15.10;99.90;;;;;;5239260;28;20032;-62
2022/07/07 03:09:55;;;;;;;3.20;2.42;;;15.20;99.90;;;;;;5242755;28;20032;-61
2022/07/07 03:12:26;;;;;;;2.55;2.33;;;15.20;99.90;;;;;;5222033;28;20325;-61
2022/07/07 03:15:01;;;;;;;2.78;2.58;;;15.20;99.90;;;;;;5221212;28;20030;-62
2022/07/07 03:17:33;;;;;;;3.35;2.30;;;15.20;99.90;;;;;;5206194;28;20357;-62
2022/07/07 03:20:07;;;;;;;2.65;2.30;;;15.20;99.90;;;;;;5239233;28;20028;-61
2022/07/07 03:22:38;;;;;;;;;;;15.30;99.90;;;;;;5238948;28;20337;-61
2022/07/07 03:25:13;;;;;;;2.50;2.30;;;15.30;99.90;;;;;;5220516;28;19954;-61
2022/07/07 03:27:46;;;;;;;5.22;2.42;;;15.30;99.90;;;;;;5209974;28;20122;-61
2022/07/07 03:30:18;;;;;;;2.55;2.35;;;15.40;99.90;;;;;;5223189;28;20032;-61
2022/07/07 03:32:54;;;;;;;2.42;2.22;;;15.40;99.90;;;;;;5239644;28;20107;-62
2022/07/07 03:35:30;;;;;;;2.30;2.10;;;15.50;99.90;;;;;;5239202;28;20016;-61
2022/07/07 03:38:04;;;;;;;2.80;2.38;;;15.60;99.90;;;;;;5221162;28;20034;-62
2022/07/07 03:40:35;;;;;;;2.10;1.90;;;15.60;99.90;;;;;;5205669;28;20225;-62
2022/07/07 03:43:06;;;;;;;2.50;2.30;;;15.60;99.90;;;;;;5220472;28;20028;-62
2022/07/07 03:45:40;;;;;;;2.42;2.22;;;15.70;99.90;;;;;;5220983;28;20201;-62
2022/07/07 03:48:17;;;;;;;2.20;2.00;;;15.70;99.90;;;;;;5222277;28;20044;-62
2022/07/07 03:50:49;;;;;;;3.33;2.10;;;15.80;99.90;;;;;;5242431;28;20051;-63
2022/07/07 03:53:23;;;;;;;2.40;2.10;;;15.90;99.90;;;;;;5227170;28;20024;-62
2022/07/07 03:55:56;;;;;;;2.45;2.22;;;16.00;99.90;;;;;;5240586;28;20285;-61
2022/07/07 03:58:30;;;;;;;3.67;2.30;;;16.10;99.90;;;;;;5224031;28;20025;-62
2022/07/07 04:01:04;;;;;;;2.25;2.05;;;16.20;99.90;;;;;;5238916;28;20333;-62
2022/07/07 04:03:37;;;;;;;2.00;1.83;;;16.10;99.90;;;;;;5205231;28;20039;-62
2022/07/07 04:06:11;;;;;;;2.67;2.17;;;16.20;99.90;;;;;;5226874;28;20376;-62
2022/07/07 04:08:44;;;;;;;3.35;2.25;;;16.20;99.90;;;;;;5239863;28;20038;-61
2022/07/07 04:11:16;;;;;;;6.10;2.27;;;16.20;99.90;;;;;;5221231;28;20032;-62
2022/07/07 04:13:48;;;;;;;2.53;2.33;;;16.20;99.90;;;;;;5238824;28;20249;-62
2022/07/07 04:16:24;;;;;;;4.68;2.72;;;16.30;99.90;;;;;;5223313;28;20031;-62
2022/07/07 04:18:56;;;;;;;2.72;2.33;;;16.30;99.90;;;;;;5240332;28;20170;-62
2022/07/07 04:21:33;;;;;;;2.83;2.25;;;16.40;99.90;;;;;;5220805;28;20033;-62
2022/07/07 04:24:04;;;;;;;2.08;1.92;;;16.30;99.90;;;;;;5222764;28;20024;-62
2022/07/07 04:26:36;;;;;;;2.45;2.20;;;16.20;99.90;;;;;;5255491;28;20031;-63
2022/07/07 04:29:08;;;;;;;2.28;2.08;;;16.30;99.90;;;;;;5222990;28;20237;-62
2022/07/07 04:31:44;;;;;;;2.50;2.30;;;16.40;99.90;;;;;;5238659;28;20027;-62
2022/07/07 04:34:18;;;;;;;2.33;1.88;;;16.50;99.90;;;;;;5220803;28;20032;-62
2022/07/07 04:36:50;;;;;;;1.88;1.77;;;16.60;99.90;;;;;;5237745;28;20247;-62
2022/07/07 04:39:22;;;;;;;2.35;2.15;;;16.70;99.90;;;;;;5238667;28;20039;-62
2022/07/07 04:41:55;;;;;;;2.42;2.22;;;16.90;99.90;;;;;;5239204;28;20032;-62
2022/07/07 04:44:29;;;;;;;1.98;1.88;;;17.00;99.90;;;;;;5241861;28;20024;-63
2022/07/07 04:47:03;;;;;;;3.42;2.63;;;17.10;99.90;;;;;;5236514;28;20320;-62
2022/07/07 04:49:37;;;;;;;3.20;2.30;;;17.20;99.90;;;;;;5239049;28;20031;-62
2022/07/07 04:52:13;;;;;;;2.57;2.20;;;17.30;99.90;;;;;;5218803;28;20028;-61
2022/07/07 04:54:47;;;;;;;2.47;2.28;;;17.50;99.90;;;;;;5238179;28;20022;-62
2022/07/07 04:57:21;;;;;;;2.00;1.80;;;17.60;99.90;;;;;;5250097;28;20030;-62
2022/07/07 04:59:53;;;;;;;4.18;2.53;;;17.70;99.90;;;;;;5260119;28;20362;-61
2022/07/07 05:02:24;;;;;;;4.20;2.08;;;17.80;99.90;;;;;;5244901;28;20142;-62
2022/07/07 05:04:58;;;;;;;2.67;2.13;;;17.90;99.90;;;;;;5227784;28;20047;-65
2022/07/07 05:07:32;;;;;;;1.92;1.70;;;17.90;99.90;;;;;;5206863;28;20035;-61
2022/07/07 05:10:05;;;;;;;2.13;1.92;;;18.00;99.90;;;;;;5199909;28;20068;-63
2022/07/07 05:12:36;;;;;;;2.80;1.52;;;18.00;99.90;;;;;;5201364;28;20470;-62
2022/07/07 05:15:08;;;;;;;2.42;2.22;;;18.00;99.90;;;;;;5225167;28;20016;-62
2022/07/07 05:17:41;;;;;;;2.08;1.90;;;18.00;99.90;;;;;;5219959;28;20298;-62
2022/07/07 05:20:17;;;;;;;2.05;1.95;;;17.90;99.90;;;;;;5237218;28;20024;-62
2022/07/07 05:22:53;;;;;;;2.30;2.13;;;17.90;99.90;;;;;;5220513;28;20684;-61
2022/07/07 05:25:26;;;;;;;3.13;1.98;;;17.80;99.90;;;;;;5221169;28;20024;-61
2022/07/07 05:27:59;;;;;;;2.08;1.90;;;17.90;99.90;;;;;;5238608;28;20032;-62
2022/07/07 05:30:36;;;;;;;2.45;2.25;;;17.90;99.90;;;;;;5237890;28;20345;-62
2022/07/07 05:33:07;;;;;;;2.83;2.33;;;17.90;99.90;;;;;;5239245;28;20024;-62
2022/07/07 05:35:41;;;;;;;2.13;1.90;;;18.00;99.90;;;;;;5220373;28;20175;-62
2022/07/07 05:38:14;;;;;;;2.45;2.17;;;18.00;99.90;;;;;;5215372;28;20028;-62
2022/07/07 05:40:48;;;;;;;2.40;2.13;;;18.10;99.90;;;;;;5216090;28;20359;-61
2022/07/07 05:43:25;;;;;;;3.55;2.15;;;18.30;99.90;;;;;;5222861;28;20226;-62
2022/07/07 05:45:56;;;;;;;2.10;1.65;;;18.60;99.90;;;;;;5235348;28;20246;-62
2022/07/07 05:48:29;;;;;;;3.78;1.70;;;18.80;99.90;;;;;;5237943;28;20024;-62
2022/07/07 05:51:00;;;;;;;2.03;1.50;;;18.90;99.90;;;;;;5220284;28;20025;-62
2022/07/07 05:53:33;;;;;;;2.30;2.10;;;18.70;99.90;;;;;;5203390;28;20033;-62
2022/07/07 05:56:04;;;;;;;3.53;1.88;;;18.80;99.90;;;;;;5237269;28;20314;-61
2022/07/07 05:58:40;;;;;;;1.60;1.50;;;18.80;99.90;;;;;;5221369;28;20190;-62
2022/07/07 06:01:12;;;;;;;1.67;1.58;;;19.00;99.90;;;;;;5219136;28;20062;-61
2022/07/07 06:03:43;;;;;;;1.92;1.83;;;19.20;99.90;;;;;;5218975;28;20026;-61
2022/07/07 06:06:20;;;;;;;1.90;1.75;;;19.60;99.90;;;;;;5228391;28;20041;-61
2022/07/07 06:08:52;;;;;;;1.42;1.33;;;19.90;99.90;;;;;;5241001;28;20029;-62
2022/07/07 06:11:25;;;;;;;2.53;1.92;;;20.20;99.90;;;;;;5232289;28;20170;-63
2022/07/07 06:13:56;;;;;;;1.50;1.40;;;20.40;99.90;;;;;;5237558;28;20034;-62
2022/07/07 06:16:40;;;;;;;1.15;1.15;;;20.50;99.90;;;;;;5245679;28;20024;-62
2022/07/07 06:19:13;;;;;;;4.25;1.52;;;20.40;99.90;;;;;;5241134;28;20039;-61
2022/07/07 06:21:51;;;;;;;1.38;1.27;;;20.50;99.90;;;;;;5239012;28;20420;-61
2022/07/07 06:24:22;;;;;;;2.63;1.40;;;20.50;99.90;;;;;;5226832;28;20415;-60
2022/07/07 06:26:53;;;;;;;4.40;1.50;;;20.60;99.90;;;;;;5250247;28;20417;-61
2022/07/07 06:29:26;;;;;;;1.90;1.38;;;20.40;99.90;;;;;;5229196;28;20028;-60
2022/07/07 06:31:57;;;;;;;2.72;1.50;;;20.40;99.90;;;;;;5219894;28;20034;-61
2022/07/07 06:34:30;;;;;;;1.58;1.48;;;20.40;99.90;;;;;;5240607;28;20624;-63
2022/07/07 06:37:02;;;;;;;1.50;1.30;;;20.80;99.90;;;;;;5223405;28;20043;-62
2022/07/07 06:39:41;;;;;;;1.50;1.40;;;20.90;99.90;;;;;;5243596;28;20206;-61
2022/07/07 06:42:12;;;;;;;1.27;1.17;;;20.80;99.90;;;;;;5243050;28;20034;-61
2022/07/07 06:44:44;;;;;;;1.25;1.15;;;21.00;99.90;;;;;;5242255;28;20127;-61
2022/07/07 06:47:17;;;;;;;1.77;1.40;;;21.10;99.90;;;;;;5223250;28;20039;-61
2022/07/07 06:49:51;;;;;;;1.45;1.35;;;21.30;99.90;;;;;;5224599;28;20310;-62
2022/07/07 06:52:25;;;;;;;1.70;1.60;;;21.50;99.90;;;;;;5232151;28;20028;-61
2022/07/07 06:54:58;;;;;;;2.50;1.30;;;21.60;99.90;;;;;;5263352;28;20028;-61
2022/07/07 06:57:33;;;;;;;1.80;1.20;;;21.70;99.90;;;;;;5226255;28;20021;-61
2022/07/07 07:00:10;;;;;;;1.42;1.33;;;21.90;99.90;;;;;;5227267;28;20042;-61
2022/07/07 07:02:44;;;;;;;0.95;0.95;;;21.80;99.90;;;;;;5241291;28;20024;-61
2022/07/07 07:05:16;;;;;;;1.98;1.33;;;21.90;99.90;;;;;;5231779;28;20041;-60
2022/07/07 07:07:51;;;;;;;1.60;1.20;;;22.00;99.90;;;;;;5239303;28;20025;-63
2022/07/07 07:10:23;;;;;;;1.20;1.08;;;22.20;99.90;;;;;;5240325;28;20032;-61
2022/07/07 07:12:54;;;;;;;1.30;1.20;;;22.20;99.90;;;;;;5222712;28;20035;-61
2022/07/07 07:15:28;;;;;;;0.90;0.90;;;22.60;99.90;;;;;;5241388;28;20035;-62
2022/07/07 07:18:03;;;;;;;1.23;1.13;;;22.70;99.90;;;;;;5222192;28;20185;-61
2022/07/07 07:20:35;;;;;;;3.30;1.17;;;22.90;99.90;;;;;;5242335;28;20339;-62
2022/07/07 07:23:11;;;;;;;2.13;0.90;;;22.90;99.90;;;;;;5221791;28;20285;-62
2022/07/07 07:25:42;;;;;;;0.98;0.88;;;23.10;99.90;;;;;;5223329;28;20028;-61
2022/07/07 07:28:13;;;;;;;0.90;0.90;;;23.20;99.90;;;;;;5206381;28;20240;-61
2022/07/07 07:30:45;;;;;;;0.88;0.88;;;23.20;99.90;;;;;;5240684;28;20028;-62
2022/07/07 07:33:17;;;;;;;1.38;1.17;;;23.30;99.90;;;;;;5239661;28;20317;-62
2022/07/07 07:35:48;;;;;;;4.63;1.23;;;23.00;99.90;;;;;;5239572;28;20020;-62
2022/07/07 07:38:19;;;;;;;1.40;1.30;;;23.10;99.90;;;;;;5241246;28;20025;-62
2022/07/07 07:40:53;;;;;;;1.88;1.30;;;23.30;99.90;;;;;;5240736;28;20356;-60
2022/07/07 07:43:24;;;;;;;1.10;1.00;;;23.10;99.90;;;;;;5232170;28;20040;-61
2022/07/07 07:45:55;;;;;;;1.20;1.10;;;23.60;99.90;;;;;;5224540;28;20256;-62
2022/07/07 07:48:29;;;;;;;2.03;1.33;;;24.00;99.90;;;;;;5225253;28;20028;-62
2022/07/07 07:51:00;;;;;;;1.17;1.10;;;24.00;99.90;;;;;;5241217;28;20024;-64
2022/07/07 07:53:37;;;;;;;1.30;1.10;;;23.80;99.90;;;;;;5241279;28;20355;-62
2022/07/07 07:56:13;;;;;;;1.38;1.20;;;23.80;99.90;;;;;;5222835;28;20301;-61
2022/07/07 07:58:47;;;;;;;1.42;1.20;;;23.80;99.90;;;;;;5221682;28;20028;-61
2022/07/07 08:01:18;;;;;;;1.80;1.40;;;23.30;99.90;;;;;;5240677;28;20024;-60
2022/07/07 08:03:49;;;;;;;1.17;1.00;;;23.40;99.90;;;;;;5240260;28;20036;-60
2022/07/07 08:06:21;;;;;;;1.60;1.23;;;23.20;99.90;;;;;;5228549;28;20367;-61
2022/07/07 08:08:57;;;;;;;1.05;1.05;;;23.00;99.90;;;;;;5220150;28;20066;-61
2022/07/07 08:11:28;;;;;;;0.77;0.77;;;22.60;99.90;;;;;;5226249;28;20032;-61
2022/07/07 08:14:02;;;;;;;1.90;1.35;;;22.80;99.90;;;;;;5260589;28;20197;-61
2022/07/07 08:16:36;;;;;;;1.58;1.15;;;23.10;99.90;;;;;;5262156;28;20024;-61
2022/07/07 08:19:17;;;;;;;1.50;1.40;;;23.70;99.90;;;;;;5232712;28;20024;-60
2022/07/07 08:21:51;;;;;;;2.08;1.88;;;24.00;99.90;;;;;;5239407;28;20024;-62
2022/07/07 08:24:25;;;;;;;1.10;1.10;;;24.50;99.90;;;;;;5222821;28;20036;-62
2022/07/07 08:26:58;;;;;;;1.20;1.10;;;24.20;99.90;;;;;;5221581;28;20031;-61
2022/07/07 08:29:30;;;;;;;1.20;1.10;;;24.10;99.90;;;;;;5240646;28;20308;-61
2022/07/07 08:32:05;;;;;;;2.05;1.50;;;23.90;99.90;;;;;;5241285;28;20042;-62
2022/07/07 08:34:38;;;;;;;0.98;0.90;;;24.30;99.90;;;;;;5247446;28;20309;-62
2022/07/07 08:37:10;;;;;;;1.05;0.95;;;24.40;99.90;;;;;;5242820;28;20225;-61
2022/07/07 08:39:42;;;;;;;2.30;1.00;;;24.80;99.90;;;;;;5237782;28;20023;-63
2022/07/07 08:42:19;;;;;;;1.20;1.10;;;25.50;99.90;;;;;;5241310;28;20029;-62
2022/07/07 08:44:51;;;;;;;1.00;1.00;;;25.70;99.90;;;;;;5240599;28;20020;-62
2022/07/07 08:47:24;;;;;;;1.17;1.08;;;25.70;99.90;;;;;;5224776;28;20203;-61
2022/07/07 08:49:58;;;;;;;1.03;1.03;;;25.20;99.90;;;;;;5206917;28;20303;-61
2022/07/07 08:52:29;;;;;;;1.55;1.45;;;24.50;99.90;;;;;;5240894;28;20543;-61
2022/07/07 08:55:03;;;;;;;1.10;1.02;;;24.50;99.90;;;;;;5232314;28;20024;-61
2022/07/07 08:57:35;;;;;;;1.77;1.38;;;24.50;99.90;;;;;;5260871;28;20043;-62
2022/07/07 09:00:07;;;;;;;1.20;1.10;;;24.20;99.90;;;;;;5243807;28;20042;-62
2022/07/07 09:02:40;;;;;;;1.27;1.17;;;24.10;99.90;;;;;;5228455;28;20081;-62
2022/07/07 09:05:12;;;;;;;2.25;1.27;;;23.50;99.90;;;;;;5228295;28;20037;-62
2022/07/07 09:07:51;;;;;;;0.98;0.95;;;23.50;99.90;;;;;;5237590;28;20186;-61
2022/07/07 09:10:38;;;;;;;1.63;1.30;;;23.80;99.90;;;;;;5240407;28;20029;-62
2022/07/07 09:13:25;;;;;;;1.40;1.20;;;23.80;99.90;;;;;;5240736;28;20013;-62
2022/07/07 09:16:00;;;;;;;4.45;1.33;;;23.70;99.90;;;;;;5221863;28;20217;-60
2022/07/07 09:18:38;;;;;;;2.47;1.30;;;23.60;99.90;;;;;;5239383;28;20028;-60
2022/07/07 09:21:31;;;;;;;2.05;1.77;;;23.50;99.90;;;;;;5220427;28;20225;-59
2022/07/07 09:24:05;;;;;;;1.83;1.23;;;23.40;99.90;;;;;;5220361;28;20046;-60
2022/07/07 09:26:39;;;;;;;1.20;1.10;;;23.40;99.90;;;;;;5203898;28;20032;-60
2022/07/07 09:29:20;;;;;;;1.40;1.30;;;23.30;99.90;;;;;;5238867;28;20028;-59
2022/07/07 09:31:58;;;;;;;10.50;1.75;;;23.30;99.90;;;;;;5238751;28;20153;-60
2022/07/07 09:34:34;;;;;;;1.40;1.30;;;23.30;99.90;;;;;;5221411;28;20032;-60
2022/07/07 09:39:58;;;;;;;1.52;1.40;;;23.50;99.90;;;;;;5189411;28;20039;-62
2022/07/07 09:42:34;;;;;;;1.60;1.00;;;23.40;99.90;;;;;;5233163;28;20237;-60
2022/07/07 09:45:11;;;;;;;2.47;1.20;;;23.00;99.90;;;;;;5244320;28;20031;-61
2022/07/07 09:47:42;;;;;;;1.30;1.20;;;22.70;99.90;;;;;;5225983;28;20020;-61
2022/07/07 09:50:20;;;;;;;3.70;1.20;;;22.40;99.90;;;;;;5242272;28;20020;-60
2022/07/07 09:52:51;;;;;;;1.50;1.10;;;22.60;99.90;;;;;;5242249;28;20016;-61
2022/07/07 09:55:27;;;;;;;1.40;1.10;;;22.80;99.90;;;;;;5224474;28;20032;-60
2022/07/07 09:58:03;;;;;;;2.47;1.30;;;22.90;99.90;;;;;;5242778;28;20034;-60
2022/07/07 10:00:39;;;;;;;3.47;1.40;;;22.80;99.90;;;;;;5242845;28;20024;-60
2022/07/07 10:03:11;;;;;;;1.17;1.08;;;22.60;99.90;;;;;;5240572;28;20028;-63
2022/07/07 10:05:46;;;;;;;1.55;1.15;;;22.50;99.90;;;;;;5219735;28;20051;-61
2022/07/07 10:08:20;;;;;;;1.45;1.20;;;22.50;99.90;;;;;;5232841;28;20022;-59
2022/07/07 10:10:52;;;;;;;1.25;1.13;;;22.10;99.90;;;;;;5233344;28;20054;-59
2022/07/07 10:13:29;;;;;;;2.97;1.38;;;22.00;99.90;;;;;;5241848;28;20035;-61
2022/07/07 10:16:01;;;;;;;0.95;0.95;;;22.40;99.90;;;;;;5223858;28;20020;-61
2022/07/07 10:18:35;;;;;;;1.65;1.23;;;22.30;99.90;;;;;;5242998;28;20058;-59
2022/07/07 10:21:10;;;;;;;1.15;1.05;;;22.40;99.90;;;;;;5255620;28;20040;-59
2022/07/07 10:23:41;;;;;;;;;;;22.60;99.90;;;;;;5234287;28;20027;-59
2022/07/07 10:26:12;;;;;;;2.38;1.10;;;22.60;99.90;;;;;;5262898;28;19907;-59
2022/07/07 10:28:56;;;;;;;1.70;1.40;;;22.70;99.90;;;;;;5262143;28;20029;-61
2022/07/07 10:31:29;;;;;;;3.60;1.02;;;23.10;99.90;;;;;;5234124;28;20020;-60
2022/07/07 10:34:11;;;;;;;1.50;1.30;;;22.90;99.90;;;;;;5241522;28;20012;-61
2022/07/07 10:36:46;;;;;;;1.25;1.00;;;22.50;99.90;;;;;;5232919;28;20032;-61
2022/07/07 10:39:21;;;;;;;1.63;1.52;;;22.10;99.90;;;;;;5241335;28;20008;-61
2022/07/07 10:42:14;;;;;;;1.25;1.17;;;22.20;99.90;;;;;;5242000;28;20029;-63
2022/07/07 10:44:54;;;;;;;1.45;1.30;;;22.00;99.90;;;;;;5227126;28;20217;-58
2022/07/07 10:47:25;;;;;;;1.27;1.02;;;22.10;99.90;;;;;;5246823;28;20016;-61
2022/07/07 10:49:59;;;;;;;1.70;1.20;;;22.40;99.90;;;;;;5251152;28;20016;-61
2022/07/07 10:52:41;;;;;;;1.80;1.40;;;22.40;99.90;;;;;;5224136;28;20032;-62
2022/07/07 10:55:15;;;;;;;1.40;1.30;;;22.70;99.90;;;;;;5239092;28;20331;-60
2022/07/07 10:57:52;;;;;;;1.35;1.23;;;22.70;99.90;;;;;;5249236;28;20216;-60
2022/07/07 11:00:27;;;;;;;1.25;1.15;;;22.50;99.90;;;;;;5221562;28;20092;-61
2022/07/07 11:03:15;;;;;;;1.40;1.20;;;22.50;99.90;;;;;;5221321;28;20308;-61
2022/07/07 11:05:46;;;;;;;1.33;1.23;;;22.40;99.90;;;;;;5184190;28;20045;-61
2022/07/07 11:08:18;;;;;;;1.00;0.98;;;22.40;99.90;;;;;;5219602;28;20028;-61
2022/07/07 11:10:55;;;;;;;1.42;1.33;;;22.60;99.90;;;;;;5200821;28;20333;-60
2022/07/07 11:13:33;;;;;;;2.08;1.30;;;22.50;99.90;;;;;;5219174;28;20023;-60
2022/07/07 11:16:13;;;;;;;1.40;1.30;;;22.60;99.90;;;;;;5200676;28;20032;-61
2022/07/07 11:18:54;;;;;;;1.45;1.35;;;22.90;99.90;;;;;;5200485;28;20028;-61
2022/07/07 11:21:41;;;;;;;1.20;1.10;;;22.70;99.90;;;;;;5212012;28;20028;-61
2022/07/07 11:24:19;;;;;;;1.25;1.15;;;22.40;99.90;;;;;;5239894;28;20034;-60
2022/07/07 11:27:04;;;;;;;1.10;1.00;;;22.10;99.90;;;;;;5239861;28;20473;-61
2022/07/07 11:29:37;;;;;;;1.67;1.58;;;21.60;99.90;;;;;;5222315;28;20016;-60
2022/07/07 11:32:11;;;;;;;0.98;0.90;;;21.10;99.90;;;;;;5223288;28;20040;-59
2022/07/07 11:34:50;;;;;;;0.75;0.75;;;21.00;99.90;;;;;;5242762;28;20195;-60
2022/07/07 11:37:33;;;;;;;0.90;0.90;;;20.70;99.90;;;;;;5240993;28;20024;-61
2022/07/07 11:40:24;;;;;;;0.80;0.80;;;20.50;99.90;;;;;;5239393;28;20210;-61
2022/07/07 11:42:56;;;;;;;1.02;1.02;;;20.50;99.90;;;;;;5220803;28;20036;-60
2022/07/07 11:45:31;;;;;;;0.93;0.93;;;20.30;99.90;;;;;;5239647;28;20034;-60
2022/07/07 11:48:07;;;;;;;1.08;1.00;;;20.40;99.90;;;;;;5239248;28;20016;-61
2022/07/07 11:50:38;;;;;;;0.90;0.90;;;20.20;99.90;;;;;;5238231;28;20199;-61
2022/07/07 11:53:11;;;;;;;0.70;0.70;;;20.20;99.90;;;;;;5237946;28;20348;-60
2022/07/07 11:55:45;;;;;;;1.23;1.02;;;20.20;99.90;;;;;;5238300;28;20080;-60
2022/07/07 11:58:19;;;;;;;1.70;1.00;;;20.20;99.90;;;;;;5237532;28;20308;-60
2022/07/07 12:00:56;;;;;;;1.27;1.10;;;20.00;99.90;;;;;;5238278;28;20039;-60
2022/07/07 12:03:31;;;;;;;1.02;1.02;;;19.70;99.90;;;;;;5253200;28;20036;-59
2022/07/07 12:06:03;;;;;;;1.25;1.10;;;19.50;99.90;;;;;;5238726;28;20368;-60
2022/07/07 12:08:36;;;;;;;1.77;1.58;;;19.40;99.90;;;;;;5239477;28;20021;-61
2022/07/07 12:11:12;;;;;;;1.02;1.00;;;19.50;99.90;;;;;;5238743;28;20025;-59
2022/07/07 12:13:43;;;;;;;0.90;0.90;;;19.60;99.90;;;;;;5221239;28;20023;-61
2022/07/07 12:16:17;;;;;;;1.48;1.10;;;19.50;99.90;;;;;;5221027;28;20016;-58
2022/07/07 12:18:48;;;;;;;2.45;1.33;;;19.60;99.90;;;;;;5238449;28;20228;-60
2022/07/07 12:21:25;;;;;;;1.40;1.30;;;19.30;99.90;;;;;;5234862;28;20039;-59
2022/07/07 12:23:56;;;;;;;1.80;1.27;;;18.70;99.90;;;;;;5237491;28;20020;-60
2022/07/07 12:26:30;;;;;;;1.30;1.20;;;18.10;99.90;;;;;;5237581;28;20157;-60
2022/07/07 12:29:01;;;;;;;1.35;1.25;;;17.70;99.90;;;;;;5237720;28;20016;-61
2022/07/07 12:31:40;;;;;;;3.95;1.63;;;17.50;99.90;;;;;;5238181;28;20237;-61
2022/07/07 12:34:13;;;;;;;1.90;1.60;;;17.30;99.90;;;;;;5218905;28;20368;-62
2022/07/07 12:36:46;;;;;;;1.67;1.58;;;17.10;99.90;;;;;;5236777;28;20035;-62
2022/07/07 12:39:18;;;;;;;1.75;1.48;;;17.00;99.90;;;;;;5237896;28;20150;-61
2022/07/07 12:41:53;;;;;;;1.52;1.42;;;16.80;99.90;;;;;;5220215;28;20024;-61
2022/07/07 12:44:31;;;;;;;2.25;2.05;;;16.80;99.90;;;;;;5255239;28;20019;-60
2022/07/07 12:47:02;;;;;;;1.77;1.67;;;16.90;99.90;;;;;;5248407;28;20028;-61
2022/07/07 12:49:36;;;;;;;1.65;1.55;;;16.90;99.90;;;;;;5230010;28;20020;-61
2022/07/07 12:52:15;;;;;;;3.17;1.90;;;17.00;99.90;;;;;;5234321;28;20016;-61
2022/07/07 12:54:47;;;;;;;1.77;1.67;;;17.10;99.90;;;;;;5229930;28;20446;-61
2022/07/07 12:57:27;;;;;;;3.05;2.05;;;17.30;99.90;;;;;;5236178;28;20020;-60
2022/07/07 12:59:58;;;;;;;1.90;1.42;;;17.30;99.90;;;;;;5235960;28;20207;-60
2022/07/07 13:02:29;;;;;;;3.53;2.28;;;17.40;99.90;;;;;;5219382;28;20032;-59
2022/07/07 13:05:01;;;;;;;1.83;1.73;;;17.40;99.90;;;;;;5225340;28;20232;-60
2022/07/07 13:07:33;;;;;;;2.20;2.00;;;17.50;99.90;;;;;;5244561;28;20038;-60
2022/07/07 13:10:05;;;;;;;2.30;1.77;;;17.70;99.90;;;;;;5257151;28;20575;-61
2022/07/07 13:12:36;;;;;;;2.47;2.10;;;17.90;99.90;;;;;;5253521;28;20224;-60
2022/07/07 13:15:08;;;;;;;2.05;1.70;;;18.00;99.90;;;;;;5216986;28;20244;-61
2022/07/07 13:17:42;;;;;;;2.20;2.00;;;18.00;99.90;;;;;;5221549;28;20016;-60
2022/07/07 13:20:13;;;;;;;2.22;2.03;;;18.10;99.90;;;;;;5235021;28;20404;-60
2022/07/07 13:22:45;;;;;;;2.20;1.80;;;18.30;99.90;;;;;;5203526;28;20356;-60
2022/07/07 13:25:16;;;;;;;1.52;1.40;;;18.60;99.90;;;;;;5217520;28;20256;-62
2022/07/07 13:27:53;;;;;;;1.58;1.48;;;19.00;99.90;;;;;;5236338;28;20355;-61